Time;durP1;ratioP1;P1;durP2;ratioP2;P2;SDS_P1;SDS_P2;PMS_P1;PMS_P2;Temp;Humidity;BMP_temperature;BMP_pressure;BME280_temperature;BME280_humidity;BME280_pressure;Samples;Min_cycle;Max_cycle;Signal;HPM_P1;HPM_P2
2022/05/29 00:01:05;;;;;;;3.43;1.83;;;14.90;51.20;;;;;;5035248;28;20490;-47
2022/05/29 00:03:32;;;;;;;3.63;1.30;;;14.80;51.40;;;;;;5037636;28;20469;-47
2022/05/29 00:05:59;;;;;;;3.10;1.53;;;14.80;51.60;;;;;;5031708;28;20552;-47
2022/05/29 00:08:28;;;;;;;3.23;1.47;;;14.70;51.60;;;;;;5035879;28;21229;-47
2022/05/29 00:10:56;;;;;;;3.43;1.50;;;14.70;51.20;;;;;;5032770;28;20543;-48
2022/05/29 00:13:24;;;;;;;3.90;1.93;;;14.60;51.70;;;;;;5032659;28;20674;-47
2022/05/29 00:15:51;;;;;;;3.73;1.93;;;14.60;51.60;;;;;;5032219;28;20651;-48
2022/05/29 00:18:18;;;;;;;4.87;1.57;;;14.60;52.10;;;;;;5033288;28;20543;-48
2022/05/29 00:20:50;;;;;;;6.90;2.23;;;14.60;51.80;;;;;;5032526;28;20938;-47
2022/05/29 00:23:17;;;;;;;4.03;1.70;;;14.60;52.00;;;;;;5032608;28;20457;-48
2022/05/29 00:25:46;;;;;;;4.67;2.03;;;14.60;52.10;;;;;;5034589;28;20462;-47
2022/05/29 00:28:13;;;;;;;2.80;1.97;;;14.60;52.70;;;;;;5032765;28;20699;-47
2022/05/29 00:30:40;;;;;;;2.80;1.50;;;14.60;52.10;;;;;;5033955;28;20457;-47
2022/05/29 00:33:08;;;;;;;8.83;1.83;;;14.50;52.20;;;;;;5032074;28;21022;-47
2022/05/29 00:35:37;;;;;;;7.20;3.13;;;14.50;52.20;;;;;;5012301;28;20456;-47
2022/05/29 00:38:04;;;;;;;4.80;1.80;;;14.50;52.50;;;;;;5029118;28;20542;-47
2022/05/29 00:40:39;;;;;;;2.90;1.70;;;14.60;52.00;;;;;;5033866;28;20593;-47
2022/05/29 00:43:06;;;;;;;2.10;1.40;;;14.60;51.90;;;;;;5030646;28;20549;-47
2022/05/29 00:45:56;;;;;;;2.83;1.50;;;14.50;52.20;;;;;;5033768;28;20494;-47
2022/05/29 00:48:25;;;;;;;5.03;1.67;;;14.50;52.30;;;;;;5032113;28;20490;-47
2022/05/29 00:50:55;;;;;;;2.43;1.50;;;14.50;53.30;;;;;;5033627;28;20463;-48
2022/05/29 00:53:22;;;;;;;3.03;1.97;;;14.50;52.70;;;;;;5031492;28;20976;-48
2022/05/29 00:55:57;;;;;;;4.63;2.10;;;14.50;52.60;;;;;;5032321;28;21052;-47
2022/05/29 00:58:25;;;;;;;2.40;1.67;;;14.50;52.70;;;;;;5029630;28;21003;-47
2022/05/29 01:00:55;;;;;;;2.83;2.13;;;14.50;53.30;;;;;;5029001;28;20498;-47
2022/05/29 01:03:22;;;;;;;3.70;1.77;;;14.40;52.90;;;;;;5030278;28;20507;-47
2022/05/29 01:05:49;;;;;;;2.30;1.70;;;14.40;53.20;;;;;;5016177;28;20448;-48
2022/05/29 01:08:29;;;;;;;4.27;1.90;;;14.40;53.50;;;;;;5032414;28;20447;-48
2022/05/29 01:11:23;;;;;;;3.03;2.13;;;14.40;53.50;;;;;;5032935;28;20819;-48
2022/05/29 01:14:22;;;;;;;4.00;1.93;;;14.40;53.10;;;;;;5014624;28;21058;-48
2022/05/29 01:17:05;;;;;;;5.13;2.20;;;14.30;53.80;;;;;;5030583;28;20462;-48
2022/05/29 01:19:57;;;;;;;2.33;1.73;;;14.30;53.80;;;;;;5033403;28;20467;-48
2022/05/29 01:22:55;;;;;;;5.43;2.00;;;14.30;53.80;;;;;;5032834;28;20493;-48
2022/05/29 01:25:28;;;;;;;3.90;1.77;;;14.40;53.60;;;;;;5034854;28;20447;-48
2022/05/29 01:28:12;;;;;;;2.50;1.47;;;14.30;53.60;;;;;;5013731;28;20533;-48
2022/05/29 01:30:46;;;;;;;1.93;1.57;;;14.30;53.50;;;;;;5035969;28;20466;-47
2022/05/29 01:33:36;;;;;;;5.20;2.10;;;14.20;53.60;;;;;;5035925;28;20482;-48
2022/05/29 01:36:14;;;;;;;5.70;1.90;;;14.30;53.90;;;;;;5035325;28;20450;-48
2022/05/29 01:38:49;;;;;;;6.90;1.93;;;14.30;54.20;;;;;;5017876;28;20443;-48
2022/05/29 01:41:19;;;;;;;5.23;1.67;;;14.30;53.80;;;;;;5017156;28;20496;-48
2022/05/29 01:43:49;;;;;;;3.60;1.53;;;14.30;53.90;;;;;;5032419;28;20550;-48
2022/05/29 01:46:32;;;;;;;5.83;1.60;;;14.20;54.00;;;;;;5032816;28;21008;-48
2022/05/29 01:49:18;;;;;;;4.87;1.93;;;14.30;53.70;;;;;;5034823;28;20461;-48
2022/05/29 01:51:56;;;;;;;3.50;1.60;;;14.20;53.50;;;;;;5030218;28;20483;-48
2022/05/29 01:54:47;;;;;;;6.77;2.17;;;14.20;53.80;;;;;;5031551;28;20463;-48
2022/05/29 01:57:34;;;;;;;1.87;1.57;;;14.10;53.50;;;;;;5018413;28;20546;-48
2022/05/29 02:00:03;;;;;;;4.57;1.47;;;14.10;53.80;;;;;;5029931;28;20477;-48
2022/05/29 02:02:48;;;;;;;2.40;1.50;;;14.10;53.70;;;;;;5031292;28;20491;-48
2022/05/29 02:05:21;;;;;;;3.53;1.80;;;14.10;54.10;;;;;;5032556;28;20450;-48
2022/05/29 02:07:52;;;;;;;2.87;1.90;;;14.10;54.10;;;;;;5030328;28;20469;-48
2022/05/29 02:11:00;;;;;;;3.90;2.13;;;14.10;53.90;;;;;;5017179;28;20447;-48
2022/05/29 02:13:30;;;;;;;3.33;1.97;;;14.20;54.00;;;;;;4969282;28;20894;-47
2022/05/29 02:16:26;;;;;;;6.60;1.80;;;14.10;54.00;;;;;;5020625;28;20450;-48
2022/05/29 02:18:59;;;;;;;3.40;1.80;;;14.00;54.00;;;;;;5031558;28;20455;-48
2022/05/29 02:22:05;;;;;;;3.50;1.60;;;14.00;54.20;;;;;;5030456;28;20523;-48
2022/05/29 02:24:42;;;;;;;6.50;1.87;;;14.00;54.00;;;;;;4984346;28;20482;-48
2022/05/29 02:27:21;;;;;;;4.90;1.87;;;14.00;54.10;;;;;;5016013;28;20466;-48
2022/05/29 02:29:48;;;;;;;4.43;2.13;;;13.90;53.80;;;;;;5016439;28;20474;-48
2022/05/29 02:32:29;;;;;;;10.97;2.37;;;13.90;54.00;;;;;;5032778;28;20467;-48
2022/05/29 02:35:10;;;;;;;5.57;1.63;;;13.80;54.50;;;;;;5029535;28;20460;-47
2022/05/29 02:37:54;;;;;;;3.90;1.93;;;13.80;54.50;;;;;;4973166;28;1143632;-47
2022/05/29 02:40:44;;;;;;;4.27;1.67;;;13.70;54.80;;;;;;5034471;28;20300;-47
2022/05/29 02:43:36;;;;;;;8.63;1.77;;;13.70;54.90;;;;;;5015919;28;20467;-47
2022/05/29 02:46:42;;;;;;;2.80;2.10;;;13.60;55.70;;;;;;5031854;28;20470;-47
2022/05/29 02:49:31;;;;;;;8.87;1.93;;;13.60;55.50;;;;;;5033039;28;20454;-47
2022/05/29 02:52:12;;;;;;;4.97;1.80;;;13.60;55.50;;;;;;5034225;28;21019;-48
2022/05/29 02:54:39;;;;;;;3.57;1.90;;;13.50;55.60;;;;;;5034137;28;20499;-47
2022/05/29 02:57:06;;;;;;;4.20;2.60;;;13.50;55.70;;;;;;5033685;28;20471;-43
2022/05/29 02:59:43;;;;;;;3.93;1.93;;;13.50;55.30;;;;;;5001834;28;20458;-47
2022/05/29 03:02:31;;;;;;;5.47;2.03;;;13.40;55.80;;;;;;5016918;28;20488;-47
2022/05/29 03:05:24;;;;;;;9.97;3.20;;;13.40;56.10;;;;;;5015961;28;20460;-47
2022/05/29 03:08:32;;;;;;;2.53;2.10;;;13.30;56.00;;;;;;5033166;28;20471;-48
2022/05/29 03:11:05;;;;;;;3.10;1.97;;;13.20;56.50;;;;;;5030068;28;20469;-48
2022/05/29 03:13:41;;;;;;;6.13;2.07;;;13.20;56.70;;;;;;5033031;28;20458;-48
2022/05/29 03:16:18;;;;;;;3.57;2.10;;;13.10;56.60;;;;;;5018016;28;20451;-47
2022/05/29 03:19:14;;;;;;;4.73;2.20;;;13.20;56.70;;;;;;5016610;28;20504;-48
2022/05/29 03:22:00;;;;;;;3.13;2.20;;;13.10;56.90;;;;;;5031377;28;20867;-47
2022/05/29 03:24:41;;;;;;;3.20;2.10;;;13.10;56.90;;;;;;5032390;28;20455;-48
2022/05/29 03:27:15;;;;;;;4.60;2.23;;;13.00;57.10;;;;;;5014760;28;20458;-48
2022/05/29 03:29:51;;;;;;;5.03;2.40;;;13.00;57.20;;;;;;5016059;28;20936;-48
2022/05/29 03:32:19;;;;;;;5.27;2.00;;;13.00;57.40;;;;;;5032617;28;20558;-47
2022/05/29 03:34:46;;;;;;;3.90;2.20;;;12.90;57.30;;;;;;5032489;28;20466;-47
2022/05/29 03:37:14;;;;;;;2.80;1.90;;;12.90;57.50;;;;;;5032501;28;20543;-47
2022/05/29 03:39:40;;;;;;;3.40;1.87;;;12.90;57.50;;;;;;5031940;28;20490;-48
2022/05/29 03:42:08;;;;;;;4.70;1.77;;;12.90;57.60;;;;;;5032740;28;20558;-48
2022/05/29 03:44:35;;;;;;;2.60;1.83;;;12.90;58.00;;;;;;5016714;28;20465;-48
2022/05/29 03:47:01;;;;;;;4.27;2.00;;;12.80;58.20;;;;;;5032777;28;20850;-48
2022/05/29 03:49:29;;;;;;;2.23;1.77;;;12.80;58.20;;;;;;5034286;28;20450;-48
2022/05/29 03:51:55;;;;;;;4.17;2.20;;;12.70;58.70;;;;;;5015001;28;20450;-48
2022/05/29 03:54:22;;;;;;;3.73;1.80;;;12.70;58.50;;;;;;5015071;28;20452;-47
2022/05/29 03:56:49;;;;;;;5.83;2.40;;;12.70;58.90;;;;;;5015526;28;20455;-47
2022/05/29 03:59:15;;;;;;;3.07;1.50;;;12.70;58.90;;;;;;5032040;28;20465;-48
2022/05/29 04:01:43;;;;;;;5.50;2.10;;;12.70;58.80;;;;;;5032131;28;20916;-47
2022/05/29 04:04:09;;;;;;;3.93;1.80;;;12.70;58.80;;;;;;5012020;28;20462;-47
2022/05/29 04:06:39;;;;;;;4.10;2.10;;;12.70;58.60;;;;;;5030110;28;20451;-47
2022/05/29 04:12:05;;;;;;;2.80;1.70;;;12.70;59.10;;;;;;5032678;28;20836;-48
2022/05/29 04:14:40;;;;;;;3.73;2.30;;;12.60;58.80;;;;;;5032369;28;20443;-48
2022/05/29 04:17:14;;;;;;;1.80;1.63;;;12.60;59.00;;;;;;5029986;28;20485;-47
2022/05/29 04:19:42;;;;;;;3.63;1.47;;;12.70;59.20;;;;;;5029583;28;20980;-47
2022/05/29 04:22:17;;;;;;;2.87;1.80;;;12.70;58.90;;;;;;5032358;28;20525;-47
2022/05/29 04:24:44;;;;;;;3.30;2.00;;;12.70;58.80;;;;;;5012201;28;20553;-47
2022/05/29 04:27:14;;;;;;;4.90;2.07;;;12.70;58.70;;;;;;5012493;28;20444;-47
2022/05/29 04:29:41;;;;;;;5.40;2.33;;;12.70;58.80;;;;;;5016472;28;20456;-47
2022/05/29 04:34:55;;;;;;;4.17;1.73;;;12.60;59.00;;;;;;5029921;28;20519;-47
2022/05/29 04:37:23;;;;;;;6.83;2.10;;;12.60;59.30;;;;;;5028545;28;20451;-48
2022/05/29 04:39:50;;;;;;;3.50;2.03;;;12.60;59.40;;;;;;5030297;28;20477;-47
2022/05/29 04:42:17;;;;;;;3.07;1.60;;;12.60;59.40;;;;;;5017103;28;20514;-47
2022/05/29 04:44:43;;;;;;;3.60;1.87;;;12.60;59.10;;;;;;5031451;28;20449;-47
2022/05/29 04:47:10;;;;;;;4.07;2.00;;;12.60;59.50;;;;;;5014828;28;20543;-47
2022/05/29 04:49:37;;;;;;;6.53;1.73;;;12.60;59.40;;;;;;5015300;28;20523;-47
2022/05/29 04:52:08;;;;;;;1.87;1.60;;;12.70;59.40;;;;;;5015245;28;20471;-47
2022/05/29 04:54:37;;;;;;;6.70;2.00;;;12.70;59.30;;;;;;5033125;28;20458;-47
2022/05/29 04:57:09;;;;;;;4.93;1.63;;;12.60;59.10;;;;;;5033585;28;20459;-47
2022/05/29 04:59:36;;;;;;;8.67;1.80;;;12.60;59.30;;;;;;5013206;28;20555;-47
2022/05/29 05:02:04;;;;;;;2.80;1.57;;;12.60;59.60;;;;;;5033589;28;20486;-47
2022/05/29 05:04:31;;;;;;;2.53;2.10;;;12.60;59.60;;;;;;5027668;28;20449;-48
2022/05/29 05:06:59;;;;;;;2.60;1.60;;;12.60;59.60;;;;;;5030993;28;20518;-48
2022/05/29 05:09:27;;;;;;;4.27;1.93;;;12.60;60.00;;;;;;5015339;28;20498;-48
2022/05/29 05:11:54;;;;;;;3.60;1.70;;;12.60;60.00;;;;;;5033066;28;20451;-48
2022/05/29 05:14:23;;;;;;;5.20;2.23;;;12.60;59.80;;;;;;5031882;28;20461;-47
2022/05/29 05:16:53;;;;;;;1.70;1.60;;;12.70;60.00;;;;;;5031464;28;20537;-47
2022/05/29 05:19:20;;;;;;;3.90;2.00;;;12.70;60.00;;;;;;4999529;28;20480;-47
2022/05/29 05:21:48;;;;;;;6.60;1.83;;;12.70;60.10;;;;;;5030037;28;20486;-48
2022/05/29 05:24:15;;;;;;;6.83;1.67;;;12.80;59.70;;;;;;5032365;28;20702;-48
2022/05/29 05:26:42;;;;;;;2.20;1.50;;;12.80;59.70;;;;;;5031363;28;20448;-48
2022/05/29 05:29:09;;;;;;;2.60;2.03;;;12.80;59.70;;;;;;5032135;28;20454;-48
2022/05/29 05:31:35;;;;;;;4.07;1.60;;;12.80;59.80;;;;;;5032944;28;20918;-47
2022/05/29 05:34:03;;;;;;;3.13;2.13;;;12.70;59.90;;;;;;5016002;28;20538;-47
2022/05/29 05:36:35;;;;;;;3.40;2.10;;;12.70;59.60;;;;;;5030456;28;20554;-46
2022/05/29 05:39:20;;;;;;;3.03;1.50;;;12.80;59.70;;;;;;5034470;28;20458;-48
2022/05/29 05:41:48;;;;;;;2.20;1.37;;;12.80;59.30;;;;;;5031163;28;20497;-47
2022/05/29 05:44:15;;;;;;;5.80;2.07;;;12.80;59.70;;;;;;5032254;28;20477;-47
2022/05/29 05:46:56;;;;;;;2.50;1.53;;;12.80;59.80;;;;;;5033173;28;20454;-47
2022/05/29 05:49:28;;;;;;;1.93;1.20;;;12.90;59.30;;;;;;5010355;28;20898;-48
2022/05/29 05:51:59;;;;;;;4.80;2.00;;;12.90;59.50;;;;;;5012854;28;20467;-48
2022/05/29 05:54:30;;;;;;;2.53;1.37;;;12.90;59.30;;;;;;5034231;28;20502;-48
2022/05/29 05:56:57;;;;;;;5.73;2.27;;;12.90;59.40;;;;;;5032195;28;20467;-48
2022/05/29 05:59:24;;;;;;;3.47;1.90;;;12.90;59.80;;;;;;5031762;28;20510;-48
2022/05/29 06:01:52;;;;;;;3.70;1.40;;;12.90;60.10;;;;;;5034963;28;20482;-48
2022/05/29 06:04:20;;;;;;;4.17;1.50;;;12.90;59.40;;;;;;5031498;28;21015;-48
2022/05/29 06:06:46;;;;;;;2.77;1.60;;;12.90;59.10;;;;;;5031390;28;20857;-48
2022/05/29 06:09:13;;;;;;;3.37;1.70;;;12.90;58.80;;;;;;5034511;28;20469;-48
2022/05/29 06:11:40;;;;;;;2.63;1.70;;;12.90;59.30;;;;;;5022598;28;20446;-48
2022/05/29 06:14:07;;;;;;;5.07;2.00;;;12.90;59.50;;;;;;5019529;28;20952;-48
2022/05/29 06:16:36;;;;;;;10.00;1.93;;;12.90;59.00;;;;;;5039561;28;20473;-48
2022/05/29 06:19:05;;;;;;;4.70;1.87;;;12.90;59.20;;;;;;5035333;28;20932;-47
2022/05/29 06:21:33;;;;;;;4.27;2.00;;;12.90;59.20;;;;;;5019901;28;20460;-46
2022/05/29 06:23:59;;;;;;;2.40;1.70;;;13.00;59.60;;;;;;5038067;28;20909;-47
2022/05/29 06:26:26;;;;;;;2.83;1.20;;;13.10;58.70;;;;;;5035137;28;20463;-47
2022/05/29 06:28:54;;;;;;;4.37;1.87;;;13.10;58.70;;;;;;5034133;28;20470;-48
2022/05/29 06:31:20;;;;;;;6.40;1.87;;;13.20;59.10;;;;;;5035317;28;20555;-47
2022/05/29 06:33:48;;;;;;;4.60;1.33;;;13.30;58.70;;;;;;5019858;28;20553;-47
2022/05/29 06:36:24;;;;;;;4.27;1.80;;;13.40;58.60;;;;;;5021119;28;20577;-47
2022/05/29 06:38:53;;;;;;;2.93;1.37;;;13.50;57.30;;;;;;5033641;28;20522;-48
2022/05/29 06:41:22;;;;;;;2.17;1.23;;;13.70;57.30;;;;;;5038298;28;20975;-47
2022/05/29 06:43:52;;;;;;;2.93;1.90;;;13.80;56.30;;;;;;5040204;28;20554;-47
2022/05/29 06:46:21;;;;;;;6.13;1.90;;;13.80;56.10;;;;;;5021662;28;20774;-47
2022/05/29 06:48:48;;;;;;;2.23;1.70;;;13.70;56.00;;;;;;5021917;28;20462;-47
2022/05/29 06:51:20;;;;;;;2.70;1.47;;;13.80;55.80;;;;;;5035317;28;20450;-47
2022/05/29 06:53:53;;;;;;;4.13;1.40;;;13.80;56.20;;;;;;5038057;28;20529;-47
2022/05/29 06:56:20;;;;;;;3.27;1.30;;;13.90;55.60;;;;;;5037410;28;20523;-47
2022/05/29 06:58:48;;;;;;;2.67;1.20;;;13.90;55.50;;;;;;5035737;28;20455;-47
2022/05/29 07:07:11;;;;;;;2.50;1.17;;;14.20;55.40;;;;;;5040676;28;20462;-48
2022/05/29 07:09:41;;;;;;;2.37;1.57;;;14.30;54.40;;;;;;5039626;28;20534;-48
2022/05/29 07:12:21;;;;;;;4.13;1.80;;;14.40;53.80;;;;;;5040827;28;20468;-48
2022/05/29 07:15:01;;;;;;;3.83;1.93;;;14.40;54.00;;;;;;5036090;28;20473;-48
2022/05/29 07:17:28;;;;;;;2.23;1.63;;;14.50;53.70;;;;;;5035474;28;20472;-48
2022/05/29 07:19:55;;;;;;;3.93;1.63;;;14.60;53.80;;;;;;5040908;28;20444;-48
2022/05/29 07:22:22;;;;;;;5.20;2.10;;;14.70;53.10;;;;;;5016840;28;20497;-47
2022/05/29 07:24:49;;;;;;;2.13;1.20;;;14.80;53.60;;;;;;5035062;28;20812;-47
2022/05/29 07:27:16;;;;;;;3.17;1.60;;;14.90;53.60;;;;;;5038973;28;20522;-47
2022/05/29 07:29:43;;;;;;;3.50;1.77;;;15.00;53.20;;;;;;5022968;28;20491;-47
2022/05/29 07:32:11;;;;;;;2.53;1.10;;;15.10;51.70;;;;;;5040227;28;20515;-47
2022/05/29 07:34:38;;;;;;;4.03;1.27;;;15.30;51.20;;;;;;5020586;28;20455;-47
2022/05/29 07:37:08;;;;;;;1.90;1.30;;;15.40;51.00;;;;;;5038295;28;20465;-47
2022/05/29 07:39:38;;;;;;;2.50;1.23;;;15.60;50.90;;;;;;5038681;28;20450;-47
2022/05/29 07:44:55;;;;;;;2.30;1.17;;;16.00;49.90;;;;;;5035862;28;20479;-47
2022/05/29 07:47:27;;;;;;;2.90;1.30;;;16.10;49.20;;;;;;5015882;28;20547;-47
2022/05/29 07:49:58;;;;;;;1.10;0.90;;;16.10;49.20;;;;;;5017453;28;20449;-48
2022/05/29 07:52:25;;;;;;;4.73;1.20;;;16.30;49.10;;;;;;5021455;28;20491;-47
2022/05/29 07:54:52;;;;;;;5.60;1.30;;;16.50;49.70;;;;;;5019226;28;20580;-47
2022/05/29 07:57:19;;;;;;;9.90;1.50;;;16.80;48.00;;;;;;5036572;28;20456;-48
2022/05/29 07:59:46;;;;;;;4.37;1.50;;;17.00;47.50;;;;;;5032490;28;20478;-48
2022/05/29 08:02:14;;;;;;;4.17;1.47;;;17.10;46.80;;;;;;5028218;28;20466;-43
2022/05/29 08:04:42;;;;;;;1.87;1.17;;;17.30;47.00;;;;;;5029347;28;20456;-48
2022/05/29 08:07:10;;;;;;;2.53;1.43;;;17.50;46.60;;;;;;5009802;28;20447;-45
2022/05/29 08:09:37;;;;;;;3.00;1.00;;;17.70;46.30;;;;;;5027329;28;20450;-45
2022/05/29 08:12:04;;;;;;;8.00;1.30;;;17.90;46.20;;;;;;5025515;28;20566;-45
2022/05/29 08:14:32;;;;;;;2.07;1.30;;;18.00;45.40;;;;;;5027374;28;20497;-45
2022/05/29 08:16:59;;;;;;;1.70;1.13;;;18.20;44.60;;;;;;5027806;28;20904;-46
2022/05/29 08:19:26;;;;;;;3.37;1.30;;;18.40;44.20;;;;;;5026858;28;20615;-43
2022/05/29 08:21:53;;;;;;;2.30;1.00;;;18.40;43.70;;;;;;5026184;28;20463;-43
2022/05/29 08:30:40;;;;;;;1.93;1.50;;;18.10;44.30;;;;;;5024063;28;20542;-44
2022/05/29 08:33:12;;;;;;;3.27;0.97;;;18.10;43.90;;;;;;5026968;28;20448;-45
2022/05/29 08:35:42;;;;;;;5.70;1.37;;;18.30;43.00;;;;;;5026882;28;20458;-45
2022/05/29 08:38:10;;;;;;;1.73;0.90;;;18.40;42.20;;;;;;5027593;28;20469;-43
2022/05/29 08:40:47;;;;;;;5.10;1.40;;;18.60;41.40;;;;;;5028067;28;20464;-48
2022/05/29 08:43:24;;;;;;;2.63;1.20;;;18.60;42.10;;;;;;5008678;28;20967;-42
2022/05/29 08:45:52;;;;;;;4.03;1.20;;;18.60;42.90;;;;;;5025622;28;20450;-43
2022/05/29 08:48:21;;;;;;;1.70;1.43;;;18.60;42.40;;;;;;5001811;28;20908;-43
2022/05/29 08:51:01;;;;;;;1.80;1.20;;;18.40;42.40;;;;;;5026234;28;20463;-43
2022/05/29 08:53:47;;;;;;;2.00;1.30;;;18.20;41.80;;;;;;5027949;28;20444;-44
2022/05/29 08:56:24;;;;;;;0.97;0.83;;;18.00;42.40;;;;;;5028220;28;20876;-45
2022/05/29 08:58:58;;;;;;;3.17;1.10;;;17.90;42.30;;;;;;5029983;28;20447;-44
2022/05/29 09:01:37;;;;;;;4.50;1.47;;;17.70;43.10;;;;;;5024295;28;20473;-44
2022/05/29 09:04:10;;;;;;;1.43;0.90;;;17.40;42.70;;;;;;5009371;28;20486;-44
2022/05/29 09:06:48;;;;;;;2.00;1.40;;;17.30;44.50;;;;;;5028640;28;20467;-45
2022/05/29 09:09:49;;;;;;;1.57;1.10;;;17.30;43.80;;;;;;5027972;28;20459;-44
2022/05/29 09:12:23;;;;;;;4.13;1.17;;;17.30;44.10;;;;;;5027617;28;20566;-45
2022/05/29 09:15:01;;;;;;;1.83;1.17;;;17.20;45.20;;;;;;5024621;28;20460;-45
2022/05/29 09:17:48;;;;;;;1.10;0.87;;;17.20;44.20;;;;;;5025667;28;20532;-45
2022/05/29 09:20:53;;;;;;;1.40;0.90;;;17.50;42.80;;;;;;5027909;28;20443;-44
2022/05/29 09:23:27;;;;;;;3.30;0.97;;;17.80;43.10;;;;;;5011955;28;20502;-46
2022/05/29 09:25:55;;;;;;;3.43;1.27;;;17.80;42.80;;;;;;5008023;28;20490;-45
2022/05/29 09:28:38;;;;;;;3.03;1.20;;;17.70;42.90;;;;;;5006159;28;20448;-45
2022/05/29 09:31:22;;;;;;;1.37;1.10;;;17.50;43.20;;;;;;5009611;28;21081;-45
2022/05/29 09:33:49;;;;;;;3.50;1.20;;;17.30;43.60;;;;;;5027281;28;20490;-44
2022/05/29 09:36:24;;;;;;;2.43;1.10;;;17.20;43.50;;;;;;5029880;28;20455;-45
2022/05/29 09:39:02;;;;;;;2.90;0.93;;;17.10;44.60;;;;;;5028333;28;20467;-44
2022/05/29 09:41:34;;;;;;;4.03;1.40;;;17.00;44.60;;;;;;5028783;28;20465;-44
2022/05/29 09:44:04;;;;;;;1.00;0.80;;;17.00;44.80;;;;;;5029089;28;20573;-44
2022/05/29 09:46:33;;;;;;;2.30;1.03;;;16.90;44.40;;;;;;5032080;28;20449;-45
2022/05/29 09:51:56;;;;;;;1.33;0.90;;;17.20;43.50;;;;;;5032464;28;20443;-45
2022/05/29 09:54:36;;;;;;;1.77;1.10;;;17.30;43.20;;;;;;5031504;28;20458;-45
2022/05/29 09:57:13;;;;;;;2.00;1.00;;;17.30;42.00;;;;;;5031165;28;20458;-45
2022/05/29 09:59:44;;;;;;;1.97;1.50;;;17.30;42.50;;;;;;5033345;28;20443;-45
2022/05/29 10:02:26;;;;;;;2.63;1.37;;;17.30;42.90;;;;;;5032988;28;21025;-45
2022/05/29 10:04:59;;;;;;;2.17;1.20;;;17.50;43.00;;;;;;5032476;28;20865;-45
2022/05/29 10:07:45;;;;;;;1.73;1.60;;;17.80;42.10;;;;;;5029203;28;20498;-45
2022/05/29 10:10:28;;;;;;;1.60;1.20;;;18.30;40.60;;;;;;5029592;28;20455;-45
2022/05/29 10:12:58;;;;;;;0.80;0.80;;;18.60;40.30;;;;;;5015693;28;20574;-45
2022/05/29 10:15:24;;;;;;;1.70;0.83;;;18.70;39.30;;;;;;5030012;28;20466;-45
2022/05/29 10:18:08;;;;;;;2.03;1.00;;;18.60;39.90;;;;;;5026796;28;20794;-45
2022/05/29 10:20:45;;;;;;;3.03;1.30;;;18.50;40.50;;;;;;5031004;28;20456;-45
2022/05/29 10:23:29;;;;;;;4.50;1.30;;;18.30;40.40;;;;;;5030350;28;20478;-45
2022/05/29 10:26:24;;;;;;;1.67;1.40;;;18.20;41.10;;;;;;5031433;28;20447;-45
2022/05/29 10:28:51;;;;;;;3.30;1.27;;;18.10;41.40;;;;;;5028835;28;20531;-45
2022/05/29 10:31:26;;;;;;;1.13;1.03;;;18.00;40.70;;;;;;5030932;28;20463;-45
2022/05/29 10:34:10;;;;;;;3.43;1.70;;;17.90;41.00;;;;;;5028708;28;20455;-45
2022/05/29 10:36:39;;;;;;;2.90;1.00;;;17.70;41.50;;;;;;5029668;28;20498;-45
2022/05/29 10:39:12;;;;;;;2.93;1.37;;;17.50;41.50;;;;;;5014746;28;20439;-45
2022/05/29 10:41:42;;;;;;;2.83;0.90;;;17.40;41.90;;;;;;5028237;28;20499;-45
2022/05/29 10:44:33;;;;;;;1.80;1.30;;;17.20;42.00;;;;;;5031677;28;20493;-45
2022/05/29 10:47:17;;;;;;;4.70;1.33;;;17.10;42.50;;;;;;5030049;28;20976;-45
2022/05/29 10:50:12;;;;;;;1.00;1.00;;;17.10;42.80;;;;;;5011787;28;20454;-45
2022/05/29 10:53:05;;;;;;;3.13;1.03;;;16.90;44.00;;;;;;5028499;28;20486;-45
2022/05/29 10:56:08;;;;;;;3.50;2.20;;;16.80;43.90;;;;;;5014539;28;20455;-46
2022/05/29 10:58:54;;;;;;;3.00;1.50;;;16.80;44.40;;;;;;5031708;28;20526;-45
2022/05/29 11:05:25;;;;;;;2.37;1.60;;;16.90;43.70;;;;;;5003901;28;21037;-45
2022/05/29 11:08:00;;;;;;;5.13;2.50;;;16.90;44.30;;;;;;5030762;28;20982;-45
2022/05/29 11:10:33;;;;;;;1.30;1.20;;;17.00;43.80;;;;;;5014126;28;20453;-45
2022/05/29 11:13:26;;;;;;;3.70;1.47;;;17.00;43.50;;;;;;5031321;28;20444;-45
2022/05/29 11:16:21;;;;;;;1.93;1.10;;;17.00;42.70;;;;;;5029176;28;20451;-45
2022/05/29 11:19:23;;;;;;;1.43;1.10;;;17.10;42.40;;;;;;5029036;28;20833;-45
2022/05/29 11:21:56;;;;;;;2.93;1.10;;;17.10;41.70;;;;;;5028915;28;20455;-45
2022/05/29 11:24:37;;;;;;;2.73;1.23;;;17.10;41.40;;;;;;5030711;28;20479;-45
2022/05/29 11:27:19;;;;;;;3.03;1.20;;;17.10;42.70;;;;;;5014301;28;20440;-44
2022/05/29 11:30:06;;;;;;;2.63;1.40;;;17.10;43.30;;;;;;5028855;28;21035;-45
2022/05/29 11:33:04;;;;;;;2.00;1.53;;;17.10;43.20;;;;;;5028755;28;20479;-45
2022/05/29 11:35:41;;;;;;;1.60;1.10;;;17.10;44.00;;;;;;5027397;28;20550;-45
2022/05/29 11:38:20;;;;;;;1.83;1.30;;;17.10;42.90;;;;;;5030889;28;20837;-45
2022/05/29 11:40:51;;;;;;;2.20;0.97;;;17.10;42.40;;;;;;5028678;28;20540;-45
2022/05/29 11:43:53;;;;;;;1.40;1.30;;;17.10;42.50;;;;;;5012021;28;20499;-45
2022/05/29 11:52:32;;;;;;;2.17;1.20;;;17.30;43.90;;;;;;5028737;28;20494;-45
2022/05/29 11:55:04;;;;;;;1.40;1.00;;;17.40;43.50;;;;;;5027104;28;20455;-45
2022/05/29 11:57:42;;;;;;;2.60;0.87;;;17.50;43.20;;;;;;5011646;28;20502;-45
2022/05/29 12:00:22;;;;;;;2.10;1.10;;;17.50;42.10;;;;;;5027496;28;20486;-45
2022/05/29 12:03:19;;;;;;;1.37;1.00;;;17.50;41.40;;;;;;5028879;28;21060;-45
2022/05/29 12:05:56;;;;;;;1.57;1.00;;;17.50;42.40;;;;;;5011868;28;20544;-45
2022/05/29 12:08:43;;;;;;;1.80;1.20;;;17.40;41.80;;;;;;5025665;28;20440;-45
2022/05/29 12:11:23;;;;;;;1.23;1.10;;;17.40;42.80;;;;;;5027226;28;20469;-44
2022/05/29 12:14:12;;;;;;;2.80;1.30;;;17.40;42.80;;;;;;5029463;28;20451;-45
2022/05/29 12:16:43;;;;;;;1.47;1.37;;;17.30;42.70;;;;;;5027946;28;20542;-45
2022/05/29 12:19:30;;;;;;;1.97;1.20;;;17.20;42.40;;;;;;5027859;28;20467;-45
2022/05/29 12:22:05;;;;;;;0.90;0.90;;;17.10;42.70;;;;;;5027076;28;20444;-45
2022/05/29 12:24:38;;;;;;;1.10;1.00;;;17.00;43.30;;;;;;5028097;28;20597;-44
2022/05/29 12:27:15;;;;;;;1.80;1.07;;;17.10;42.70;;;;;;5028265;28;20507;-45
2022/05/29 12:30:04;;;;;;;2.70;1.00;;;17.10;43.20;;;;;;5027349;28;20458;-46
2022/05/29 12:32:35;;;;;;;3.53;1.37;;;17.10;43.60;;;;;;5024991;28;20493;-45
2022/05/29 12:35:25;;;;;;;0.87;0.70;;;17.20;42.30;;;;;;5024834;28;20447;-44
2022/05/29 12:38:15;;;;;;;4.03;1.27;;;17.20;42.20;;;;;;5025895;28;20503;-44
2022/05/29 12:41:01;;;;;;;4.50;1.73;;;17.30;43.00;;;;;;5026948;28;20479;-47
2022/05/29 12:43:46;;;;;;;0.80;0.80;;;17.40;43.20;;;;;;5023249;28;20707;-44
2022/05/29 12:46:40;;;;;;;2.57;1.23;;;17.50;41.60;;;;;;5005889;28;20467;-44
2022/05/29 12:49:17;;;;;;;2.23;1.67;;;17.50;42.10;;;;;;5025915;28;20838;-45
2022/05/29 12:51:50;;;;;;;2.53;1.13;;;17.50;42.20;;;;;;5025862;28;20538;-44
2022/05/29 12:54:35;;;;;;;1.27;0.93;;;17.60;42.50;;;;;;5034792;28;20515;-47
2022/05/29 12:57:20;;;;;;;2.07;1.73;;;17.70;42.90;;;;;;5039308;28;20443;-47
2022/05/29 13:00:06;;;;;;;1.50;1.03;;;17.70;41.80;;;;;;5035985;28;20543;-48
2022/05/29 13:02:51;;;;;;;1.20;1.10;;;17.70;41.40;;;;;;5021641;28;20476;-48
2022/05/29 13:05:55;;;;;;;1.53;1.30;;;17.70;41.00;;;;;;5032714;28;21007;-48
2022/05/29 13:08:47;;;;;;;2.10;1.70;;;17.70;41.60;;;;;;5038549;28;20534;-48
2022/05/29 13:11:31;;;;;;;2.63;1.70;;;17.70;43.20;;;;;;5033073;28;21145;-48
2022/05/29 13:14:03;;;;;;;2.90;1.50;;;17.70;45.50;;;;;;5032925;28;20459;-48
2022/05/29 13:16:34;;;;;;;2.20;1.70;;;17.70;45.40;;;;;;5034068;28;20465;-48
2022/05/29 13:19:19;;;;;;;2.37;1.73;;;17.60;45.40;;;;;;5039145;28;20860;-47
2022/05/29 13:21:54;;;;;;;2.60;1.43;;;17.50;45.20;;;;;;5039673;28;21188;-47
2022/05/29 13:24:32;;;;;;;1.37;1.27;;;17.40;45.50;;;;;;5023421;28;20486;-47
2022/05/29 13:27:24;;;;;;;2.73;1.40;;;17.30;45.70;;;;;;5041789;28;21002;-48
2022/05/29 13:30:00;;;;;;;3.57;1.57;;;17.40;44.20;;;;;;5018297;28;20608;-48
2022/05/29 13:32:35;;;;;;;3.13;1.90;;;17.40;45.00;;;;;;5042683;28;21376;-48
2022/05/29 13:35:04;;;;;;;3.57;1.70;;;17.40;45.10;;;;;;5033810;28;20490;-42
2022/05/29 13:37:44;;;;;;;1.87;1.50;;;17.40;45.20;;;;;;5029781;28;20488;-42
2022/05/29 13:40:32;;;;;;;2.40;1.47;;;17.60;45.30;;;;;;5013540;28;20454;-43
2022/05/29 13:43:22;;;;;;;1.60;1.50;;;17.70;44.90;;;;;;5029219;28;20514;-42
2022/05/29 13:46:04;;;;;;;2.73;1.57;;;18.00;43.80;;;;;;5017954;28;20494;-44
2022/05/29 13:48:31;;;;;;;1.50;1.40;;;18.20;44.60;;;;;;5029631;28;21040;-43
2022/05/29 13:51:20;;;;;;;1.37;1.27;;;18.20;42.60;;;;;;5031702;28;20461;-43
2022/05/29 13:53:55;;;;;;;5.70;1.40;;;18.40;42.30;;;;;;5029910;28;20833;-43
2022/05/29 13:56:57;;;;;;;1.33;1.23;;;18.50;41.90;;;;;;5007313;28;21201;-42
2022/05/29 14:05:42;;;;;;;1.53;1.17;;;18.80;39.00;;;;;;5028344;28;20495;-42
2022/05/29 14:08:18;;;;;;;2.10;1.90;;;18.80;39.80;;;;;;5028895;28;20478;-43